CPA289 EDDF-VHHH
Flight info
| Callsign | CPA289 |
|---|---|
| Flight time | N/A |
| Altitude | 29000 |
| Route | SULUS4D/07C SULUS Z650 VEMUT DCT PEPIK DCT NORAH/N0491F310 DCT BUDOP DCT LUGEB DCT UDROS UM859 KARDE UL851 TBN UM11 REBLO M11 LUSAL N199 RASAM L88 METKA/N0490F330 B476 DARVA/K0913F330 T898 OGOLI N193 SR L163 TISIB L141 KAMUD/K0909S1010 W186 SADAN Y1 SUNPU/K0904S1070 Y1 OMBON W245 OVRAL B330 KWE W181 DUDIT A599 POU R473 SIERA |
| Aircraft | B77W/H-SDE1E2E3FGHIJ2J3J4J5M1RWXY/LB1D1 |
Departure
| Time | 2026-05-01 14:25 |
|---|---|
| Airport | Frankfurt Main Airport (EDDF) |
Arrival
| Time | N/A |
|---|---|
| Airport | Hong Kong International Airport (VHHH) |
| Time | Latitude | Longitude | Altitude | Speed | Heading |
|---|---|---|---|---|---|
| 2026-05-01 13:29 | 50.04885 | 8.57973 | 367 ft | 0 kts | 12° |
| 2026-05-01 14:10 | 50.04876 | 8.57970 | 364 ft | 4 kts | 12° |
| 2026-05-01 14:11 | 50.04849 | 8.57961 | 363 ft | 4 kts | 11° |
| 2026-05-01 14:11 | 50.04805 | 8.57953 | 364 ft | 4 kts | 332° |
| 2026-05-01 14:11 | 50.04796 | 8.57964 | 364 ft | 4 kts | 283° |
| 2026-05-01 14:12 | 50.04795 | 8.58001 | 364 ft | 4 kts | 261° |
| 2026-05-01 14:12 | 50.04800 | 8.58042 | 366 ft | 4 kts | 252° |
| 2026-05-01 14:12 | 50.04804 | 8.58060 | 366 ft | 0 kts | 250° |
| 2026-05-01 14:16 | 50.04795 | 8.58027 | 365 ft | 8 kts | 242° |
| 2026-05-01 14:16 | 50.04728 | 8.57959 | 368 ft | 15 kts | 179° |
| 2026-05-01 14:16 | 50.04631 | 8.58009 | 369 ft | 15 kts | 159° |
| 2026-05-01 14:17 | 50.04540 | 8.57984 | 372 ft | 15 kts | 230° |
| 2026-05-01 14:17 | 50.04499 | 8.57838 | 372 ft | 15 kts | 250° |
| 2026-05-01 14:17 | 50.04464 | 8.57689 | 370 ft | 15 kts | 250° |
| 2026-05-01 14:17 | 50.04427 | 8.57536 | 369 ft | 16 kts | 249° |
| 2026-05-01 14:18 | 50.04389 | 8.57375 | 369 ft | 16 kts | 250° |
| 2026-05-01 14:18 | 50.04350 | 8.57214 | 370 ft | 16 kts | 250° |
| 2026-05-01 14:18 | 50.04312 | 8.57053 | 371 ft | 16 kts | 250° |
| 2026-05-01 14:18 | 50.04286 | 8.56945 | 368 ft | 16 kts | 250° |
| 2026-05-01 14:19 | 50.04236 | 8.56730 | 364 ft | 16 kts | 250° |
| 2026-05-01 14:19 | 50.04198 | 8.56569 | 365 ft | 16 kts | 249° |
| 2026-05-01 14:19 | 50.04159 | 8.56408 | 365 ft | 16 kts | 249° |
| 2026-05-01 14:19 | 50.04120 | 8.56246 | 361 ft | 16 kts | 249° |
| 2026-05-01 14:20 | 50.04082 | 8.56086 | 364 ft | 16 kts | 249° |
| 2026-05-01 14:20 | 50.04005 | 8.55763 | 364 ft | 16 kts | 250° |
| 2026-05-01 14:20 | 50.03966 | 8.55604 | 361 ft | 16 kts | 249° |
| 2026-05-01 14:21 | 50.03928 | 8.55443 | 363 ft | 16 kts | 250° |
| 2026-05-01 14:21 | 50.03889 | 8.55280 | 360 ft | 16 kts | 249° |
| 2026-05-01 14:21 | 50.03851 | 8.55121 | 361 ft | 16 kts | 250° |
| 2026-05-01 14:22 | 50.03774 | 8.54799 | 359 ft | 16 kts | 249° |
| 2026-05-01 14:22 | 50.03735 | 8.54639 | 359 ft | 16 kts | 250° |
| 2026-05-01 14:22 | 50.03697 | 8.54478 | 349 ft | 16 kts | 249° |
| 2026-05-01 14:22 | 50.03652 | 8.54336 | 356 ft | 14 kts | 224° |
| 2026-05-01 14:23 | 50.03584 | 8.54326 | 346 ft | 10 kts | 166° |
| 2026-05-01 14:23 | 50.03521 | 8.54362 | 356 ft | 10 kts | 157° |
| 2026-05-01 14:23 | 50.03500 | 8.54435 | 353 ft | 7 kts | 88° |
| 2026-05-01 14:23 | 50.03502 | 8.54460 | 356 ft | 0 kts | 76° |
| 2026-05-01 14:24 | 50.03516 | 8.54536 | 356 ft | 24 kts | 72° |
| 2026-05-01 14:24 | 50.03671 | 8.55177 | 356 ft | 105 kts | 70° |
| 2026-05-01 14:25 | 50.04010 | 8.56634 | 367 ft | 182 kts | 71° |
| 2026-05-01 14:25 | 50.04462 | 8.58800 | 692 ft | 225 kts | 71° |
| 2026-05-01 14:25 | 50.05099 | 8.61181 | 1442 ft | 249 kts | 70° |
| 2026-05-01 14:25 | 50.05738 | 8.63740 | 2599 ft | 247 kts | 72° |
| 2026-05-01 14:26 | 50.06267 | 8.66192 | 3567 ft | 241 kts | 75° |
| 2026-05-01 14:26 | 50.07166 | 8.71413 | 3997 ft | 260 kts | 93° |
| 2026-05-01 14:26 | 50.07058 | 8.73251 | 4049 ft | 255 kts | 102° |
| 2026-05-01 14:27 | 50.06741 | 8.75959 | 4041 ft | 255 kts | 102° |
| 2026-05-01 14:27 | 50.06407 | 8.78674 | 4044 ft | 256 kts | 102° |
| 2026-05-01 14:27 | 50.05978 | 8.82260 | 4073 ft | 256 kts | 102° |
| 2026-05-01 14:28 | 50.05676 | 8.86837 | 4032 ft | 251 kts | 91° |
| 2026-05-01 14:28 | 50.05743 | 8.89580 | 4533 ft | 255 kts | 90° |
| 2026-05-01 14:28 | 50.05826 | 8.92382 | 5079 ft | 265 kts | 91° |
| 2026-05-01 14:28 | 50.05902 | 8.95271 | 5688 ft | 269 kts | 91° |
| 2026-05-01 14:29 | 50.05968 | 8.98195 | 6299 ft | 273 kts | 91° |
| 2026-05-01 14:29 | 50.06027 | 9.01183 | 6915 ft | 276 kts | 91° |
| 2026-05-01 14:30 | 50.06187 | 9.10252 | 8786 ft | 282 kts | 91° |
| 2026-05-01 14:30 | 50.06234 | 9.13315 | 9410 ft | 284 kts | 91° |
| 2026-05-01 14:30 | 50.06279 | 9.16380 | 10114 ft | 283 kts | 91° |
| 2026-05-01 14:31 | 50.06367 | 9.22646 | 10862 ft | 305 kts | 91° |
| 2026-05-01 14:31 | 50.06413 | 9.26076 | 11005 ft | 325 kts | 90° |
| 2026-05-01 14:31 | 50.06458 | 9.29693 | 11140 ft | 345 kts | 90° |
| 2026-05-01 14:31 | 50.06509 | 9.33525 | 11445 ft | 357 kts | 90° |
| 2026-05-01 14:32 | 50.06560 | 9.37402 | 12134 ft | 360 kts | 90° |
| 2026-05-01 14:32 | 50.06610 | 9.41308 | 12843 ft | 362 kts | 90° |
| 2026-05-01 14:32 | 50.06659 | 9.45252 | 13455 ft | 367 kts | 90° |
| 2026-05-01 14:32 | 50.06707 | 9.49193 | 14131 ft | 371 kts | 90° |
| 2026-05-01 14:33 | 50.06754 | 9.53282 | 14704 ft | 375 kts | 90° |
| 2026-05-01 14:33 | 50.06798 | 9.57306 | 15317 ft | 377 kts | 90° |
| 2026-05-01 14:33 | 50.06843 | 9.61405 | 15884 ft | 380 kts | 90° |
| 2026-05-01 14:33 | 50.06888 | 9.65547 | 16471 ft | 384 kts | 90° |
| 2026-05-01 14:34 | 50.06930 | 9.69685 | 17127 ft | 385 kts | 90° |
| 2026-05-01 14:34 | 50.06971 | 9.73886 | 17778 ft | 387 kts | 90° |
| 2026-05-01 14:34 | 50.07008 | 9.78077 | 18394 ft | 389 kts | 90° |
| 2026-05-01 14:34 | 50.07045 | 9.82326 | 18861 ft | 395 kts | 90° |
| 2026-05-01 14:35 | 50.07081 | 9.86615 | 19312 ft | 399 kts | 90° |
| 2026-05-01 14:35 | 50.07116 | 9.90965 | 19799 ft | 403 kts | 89° |
| 2026-05-01 14:35 | 50.07150 | 9.95325 | 20355 ft | 404 kts | 89° |
| 2026-05-01 14:35 | 50.07183 | 9.99710 | 20911 ft | 405 kts | 89° |
| 2026-05-01 14:36 | 50.07214 | 10.04099 | 21434 ft | 407 kts | 89° |
| 2026-05-01 14:36 | 50.07244 | 10.08540 | 21912 ft | 411 kts | 89° |
| 2026-05-01 14:36 | 50.07274 | 10.13007 | 22305 ft | 416 kts | 89° |
| 2026-05-01 14:36 | 50.07301 | 10.17541 | 22702 ft | 421 kts | 89° |
| 2026-05-01 14:37 | 50.07324 | 10.22101 | 23159 ft | 424 kts | 89° |
| 2026-05-01 14:37 | 50.07348 | 10.26715 | 23547 ft | 428 kts | 89° |
| 2026-05-01 14:37 | 50.07371 | 10.31354 | 24001 ft | 430 kts | 89° |
| 2026-05-01 14:37 | 50.07393 | 10.36044 | 24362 ft | 433 kts | 89° |
| 2026-05-01 14:38 | 50.07413 | 10.40673 | 24780 ft | 435 kts | 89° |
| 2026-05-01 14:38 | 50.07431 | 10.45409 | 25136 ft | 438 kts | 89° |
| 2026-05-01 14:38 | 50.07448 | 10.50159 | 25457 ft | 441 kts | 89° |
| 2026-05-01 14:38 | 50.07462 | 10.54960 | 25796 ft | 444 kts | 89° |
| 2026-05-01 14:39 | 50.07475 | 10.59758 | 26177 ft | 446 kts | 89° |
| 2026-05-01 14:39 | 50.07487 | 10.64612 | 26523 ft | 448 kts | 89° |
| 2026-05-01 14:39 | 50.07497 | 10.69471 | 26826 ft | 452 kts | 89° |
| 2026-05-01 14:39 | 50.07328 | 10.74373 | 27103 ft | 456 kts | 99° |
| 2026-05-01 14:40 | 50.06472 | 10.79141 | 27314 ft | 462 kts | 108° |
| 2026-05-01 14:40 | 50.05383 | 10.83906 | 27557 ft | 466 kts | 109° |
| 2026-05-01 14:40 | 50.04289 | 10.88647 | 27881 ft | 468 kts | 108° |
| 2026-05-01 14:40 | 50.03217 | 10.93422 | 28208 ft | 470 kts | 108° |
| 2026-05-01 14:41 | 50.02170 | 10.98236 | 28508 ft | 472 kts | 107° |
| 2026-05-01 14:41 | 50.01189 | 11.02842 | 28783 ft | 473 kts | 107° |
| 2026-05-01 14:41 | 50.00892 | 11.04248 | 28870 ft | 474 kts | 107° |
| 2026-05-01 14:41 | 49.99868 | 11.09102 | 29128 ft | 476 kts | 107° |
| 2026-05-01 14:42 | 49.98826 | 11.14033 | 29282 ft | 480 kts | 107° |
| 2026-05-01 14:42 | 49.96713 | 11.23951 | 29353 ft | 486 kts | 107° |
| 2026-05-01 14:43 | 49.94573 | 11.33940 | 29369 ft | 487 kts | 107° |
| 2026-05-01 14:43 | 49.92461 | 11.43880 | 29365 ft | 486 kts | 105° |
| 2026-05-01 14:44 | 49.90666 | 11.53954 | 29377 ft | 485 kts | 103° |
| 2026-05-01 14:44 | 49.88040 | 11.69087 | 29382 ft | 484 kts | 99° |
| 2026-05-01 14:45 | 49.86697 | 11.84551 | 29401 ft | 482 kts | 95° |
| 2026-05-01 14:46 | 49.85803 | 11.94852 | 29402 ft | 482 kts | 96° |
| 2026-05-01 14:46 | 49.84394 | 12.10282 | 29398 ft | 482 kts | 96° |
| 2026-05-01 14:47 | 49.83442 | 12.20560 | 29399 ft | 482 kts | 96° |
| 2026-05-01 14:48 | 49.82029 | 12.35946 | 29394 ft | 482 kts | 96° |
| 2026-05-01 14:48 | 49.80184 | 12.51207 | 29372 ft | 484 kts | 105° |
| 2026-05-01 14:49 | 49.76120 | 12.71069 | 29381 ft | 484 kts | 105° |
| 2026-05-01 14:50 | 49.72089 | 12.90947 | 29383 ft | 484 kts | 104° |
| 2026-05-01 14:51 | 49.69060 | 13.05836 | 29366 ft | 484 kts | 104° |
| 2026-05-01 14:52 | 49.66013 | 13.20674 | 29370 ft | 483 kts | 104° |
| 2026-05-01 14:53 | 49.62962 | 13.35432 | 29373 ft | 483 kts | 104° |
| 2026-05-01 14:53 | 49.60909 | 13.45296 | 29381 ft | 483 kts | 104° |
| 2026-05-01 14:54 | 49.58849 | 13.55149 | 29381 ft | 483 kts | 104° |
| 2026-05-01 14:54 | 49.56783 | 13.64981 | 29369 ft | 482 kts | 104° |
| 2026-05-01 14:55 | 49.54715 | 13.74774 | 29372 ft | 482 kts | 104° |
| 2026-05-01 14:55 | 49.52624 | 13.84629 | 29374 ft | 482 kts | 104° |
| 2026-05-01 14:56 | 49.50551 | 13.94356 | 29374 ft | 482 kts | 104° |
| 2026-05-01 14:56 | 49.48436 | 14.04227 | 29374 ft | 482 kts | 104° |
| 2026-05-01 14:57 | 49.46346 | 14.13939 | 29369 ft | 482 kts | 104° |
| 2026-05-01 14:57 | 49.43170 | 14.28605 | 29362 ft | 482 kts | 104° |
| 2026-05-01 14:58 | 49.41049 | 14.38339 | 29376 ft | 481 kts | 104° |
| 2026-05-01 14:58 | 49.38916 | 14.48086 | 29361 ft | 481 kts | 104° |
| 2026-05-01 14:59 | 49.36779 | 14.57804 | 29363 ft | 480 kts | 104° |
| 2026-05-01 14:59 | 49.34640 | 14.67488 | 29366 ft | 479 kts | 104° |
| 2026-05-01 15:00 | 49.31414 | 14.82007 | 29369 ft | 479 kts | 104° |
| 2026-05-01 15:01 | 49.29259 | 14.91651 | 29358 ft | 479 kts | 104° |
| 2026-05-01 15:01 | 49.27095 | 15.01289 | 29366 ft | 478 kts | 104° |
| 2026-05-01 15:02 | 49.24922 | 15.10925 | 29373 ft | 478 kts | 104° |
| 2026-05-01 15:02 | 49.22742 | 15.20544 | 29370 ft | 478 kts | 104° |
| 2026-05-01 15:03 | 49.20573 | 15.30076 | 29354 ft | 478 kts | 104° |
| 2026-05-01 15:03 | 49.18383 | 15.39657 | 29359 ft | 477 kts | 104° |
| 2026-05-01 15:04 | 49.16183 | 15.49235 | 29353 ft | 477 kts | 105° |
| 2026-05-01 15:04 | 49.13979 | 15.58794 | 29351 ft | 477 kts | 105° |
| 2026-05-01 15:05 | 49.11766 | 15.68339 | 29345 ft | 476 kts | 105° |
| 2026-05-01 15:05 | 49.09551 | 15.77858 | 29347 ft | 476 kts | 105° |
| 2026-05-01 15:06 | 49.07324 | 15.87383 | 29352 ft | 475 kts | 105° |
| 2026-05-01 15:06 | 49.05095 | 15.96876 | 29346 ft | 475 kts | 105° |
| 2026-05-01 15:07 | 49.02878 | 16.06277 | 29352 ft | 474 kts | 105° |
| 2026-05-01 15:07 | 49.00642 | 16.15718 | 29336 ft | 474 kts | 105° |
| 2026-05-01 15:08 | 48.98398 | 16.25150 | 29342 ft | 473 kts | 105° |
| 2026-05-01 15:08 | 48.96148 | 16.34568 | 29337 ft | 473 kts | 105° |
| 2026-05-01 15:09 | 48.93895 | 16.43960 | 29327 ft | 473 kts | 105° |
| 2026-05-01 15:09 | 48.91633 | 16.53347 | 29313 ft | 473 kts | 105° |
| 2026-05-01 15:10 | 48.89378 | 16.62670 | 29317 ft | 472 kts | 105° |
| 2026-05-01 15:10 | 48.85961 | 16.76712 | 29315 ft | 472 kts | 105° |
| 2026-05-01 15:11 | 48.82533 | 16.90719 | 29304 ft | 472 kts | 105° |
| 2026-05-01 15:12 | 48.80241 | 17.00043 | 29307 ft | 472 kts | 105° |
| 2026-05-01 15:12 | 48.76071 | 17.13633 | 29306 ft | 480 kts | 116° |
| 2026-05-01 15:14 | 48.67235 | 17.34960 | 29299 ft | 479 kts | 116° |
| 2026-05-01 15:14 | 48.61952 | 17.47796 | 29300 ft | 479 kts | 116° |
| 2026-05-01 15:15 | 48.55502 | 17.63398 | 29308 ft | 478 kts | 116° |
| 2026-05-01 15:16 | 48.48425 | 17.80404 | 29288 ft | 478 kts | 116° |
| 2026-05-01 15:18 | 48.39576 | 18.01520 | 29302 ft | 476 kts | 116° |
| 2026-05-01 15:19 | 48.32481 | 18.18329 | 29310 ft | 475 kts | 116° |
| 2026-05-01 15:19 | 48.27185 | 18.30810 | 29312 ft | 475 kts | 116° |
| 2026-05-01 15:20 | 48.21843 | 18.43339 | 29309 ft | 475 kts | 116° |
| 2026-05-01 15:21 | 48.18286 | 18.51651 | 29311 ft | 475 kts | 116° |
| 2026-05-01 15:21 | 48.14719 | 18.59960 | 29308 ft | 475 kts | 116° |
| 2026-05-01 15:22 | 48.09342 | 18.72440 | 29303 ft | 474 kts | 116° |
| 2026-05-01 15:22 | 48.05759 | 18.80720 | 29307 ft | 474 kts | 116° |
| 2026-05-01 15:23 | 48.02170 | 18.88992 | 29311 ft | 474 kts | 116° |
| 2026-05-01 15:23 | 47.98570 | 18.97265 | 29294 ft | 474 kts | 116° |
| 2026-05-01 15:24 | 47.94977 | 19.05495 | 29304 ft | 474 kts | 116° |
| 2026-05-01 15:24 | 47.91358 | 19.13758 | 29306 ft | 474 kts | 116° |
| 2026-05-01 15:25 | 47.87744 | 19.21988 | 29303 ft | 474 kts | 116° |
| 2026-05-01 15:25 | 47.84151 | 19.30145 | 29306 ft | 474 kts | 116° |
| 2026-05-01 15:26 | 47.80536 | 19.38327 | 29306 ft | 474 kts | 116° |
| 2026-05-01 15:26 | 47.76909 | 19.46512 | 29292 ft | 473 kts | 116° |
| 2026-05-01 15:27 | 47.73284 | 19.54666 | 29314 ft | 473 kts | 116° |
| 2026-05-01 15:28 | 47.67839 | 19.66873 | 29299 ft | 472 kts | 116° |
| 2026-05-01 15:28 | 47.64208 | 19.74989 | 29318 ft | 473 kts | 116° |
| 2026-05-01 15:29 | 47.60465 | 19.83045 | 30007 ft | 476 kts | 120° |
| 2026-05-01 15:29 | 47.58422 | 19.86866 | 30455 ft | 474 kts | 120° |
| 2026-05-01 15:29 | 47.54299 | 19.94501 | 30978 ft | 474 kts | 120° |
| 2026-05-01 15:30 | 47.50179 | 20.02145 | 31237 ft | 476 kts | 120° |
| 2026-05-01 15:31 | 47.37868 | 20.24973 | 31297 ft | 473 kts | 120° |
| 2026-05-01 15:32 | 47.29654 | 20.40110 | 31303 ft | 473 kts | 120° |
| 2026-05-01 15:34 | 47.17261 | 20.62786 | 31295 ft | 475 kts | 120° |